createdAt,value
2018-03-18T00:01:50.400Z,38.30
2018-03-18T00:04:16.758Z,39.83
2018-03-18T00:06:43.873Z,45.53
2018-03-18T00:09:10.203Z,37.70
2018-03-18T00:11:37.502Z,44.88
2018-03-18T00:14:03.963Z,46.10
2018-03-18T00:16:30.302Z,44.15
2018-03-18T00:18:56.627Z,49.78
2018-03-18T00:21:22.934Z,41.50
2018-03-18T00:23:49.233Z,41.15
2018-03-18T00:26:16.293Z,42.83
2018-03-18T00:28:43.442Z,46.50
2018-03-18T00:31:09.826Z,42.72
2018-03-18T00:33:36.159Z,43.55
2018-03-18T00:36:02.509Z,40.78
2018-03-18T00:38:28.823Z,42.17
2018-03-18T00:40:55.154Z,44.45
2018-03-18T00:43:21.587Z,42.60
2018-03-18T00:45:47.919Z,43.50
2018-03-18T00:48:14.266Z,47.72
2018-03-18T00:50:43.087Z,40.72
2018-03-18T00:53:10.184Z,44.38
2018-03-18T00:55:36.494Z,45.97
2018-03-18T00:58:02.862Z,39.92
2018-03-18T01:00:29.203Z,41.95
2018-03-18T01:02:56.518Z,43.00
2018-03-18T01:05:23.097Z,42.17
2018-03-18T01:07:50.173Z,39.88
2018-03-18T01:10:16.528Z,43.80
2018-03-18T01:12:42.840Z,44.70
2018-03-18T01:15:10.199Z,41.30
2018-03-18T01:17:36.518Z,43.47
2018-03-18T01:20:02.862Z,45.65
2018-03-18T01:22:29.162Z,45.42
2018-03-18T01:24:56.215Z,36.60
2018-03-18T01:27:23.271Z,38.85
2018-03-18T01:29:50.330Z,44.80
2018-03-18T01:32:16.667Z,41.45
2018-03-18T01:34:42.987Z,41.37
2018-03-18T01:37:09.311Z,41.53
2018-03-18T01:39:36.398Z,46.92
2018-03-18T01:42:02.790Z,39.28
2018-03-18T01:44:29.862Z,44.85
2018-03-18T01:46:56.182Z,45.40
2018-03-18T01:49:22.557Z,40.40
2018-03-18T01:51:48.870Z,42.05
2018-03-18T01:54:15.205Z,39.35
2018-03-18T01:56:41.533Z,38.70
2018-03-18T01:59:07.875Z,42.75
2018-03-18T02:01:34.207Z,41.90
2018-03-18T02:04:00.526Z,44.70
2018-03-18T02:06:26.865Z,46.55
2018-03-18T02:08:53.194Z,46.97
2018-03-18T02:11:19.522Z,42.60
2018-03-18T02:13:45.847Z,46.03
2018-03-18T02:16:12.147Z,43.83
2018-03-18T02:18:38.516Z,49.33
2018-03-18T02:21:04.839Z,46.70
2018-03-18T02:23:32.190Z,45.05
2018-03-18T02:25:58.531Z,48.10
2018-03-18T02:28:25.893Z,40.25
2018-03-18T02:30:52.211Z,41.83
2018-03-18T02:33:18.547Z,38.95
2018-03-18T02:35:45.665Z,39.30
2018-03-18T02:38:11.986Z,42.78
2018-03-18T02:40:38.292Z,44.15
2018-03-18T02:43:05.339Z,41.10
2018-03-18T02:45:32.687Z,33.42
2018-03-18T02:47:59.018Z,39.72
2018-03-18T02:50:25.358Z,40.28
2018-03-18T02:52:52.436Z,38.30
2018-03-18T02:55:19.804Z,42.50
2018-03-18T02:57:46.178Z,39.42
2018-03-18T03:00:12.517Z,40.60
2018-03-18T03:02:39.581Z,36.95
2018-03-18T03:05:06.654Z,39.33
2018-03-18T03:07:33.087Z,36.38
2018-03-18T03:09:59.411Z,36.95
2018-03-18T03:12:25.761Z,35.15
2018-03-18T03:14:52.076Z,38.47
2018-03-18T03:17:18.374Z,39.53
2018-03-18T03:19:44.686Z,40.03
2018-03-18T03:22:11.046Z,38.00
2018-03-18T03:24:38.106Z,39.92
2018-03-18T03:27:05.168Z,36.67
2018-03-18T03:29:32.227Z,36.08
2018-03-18T03:31:58.548Z,33.03
2018-03-18T03:34:24.879Z,39.67
2018-03-18T03:36:51.173Z,30.65
2018-03-18T03:39:18.233Z,35.85
2018-03-18T03:41:45.531Z,30.35
2018-03-18T03:44:11.869Z,35.42
2018-03-18T03:46:38.190Z,31.27
2018-03-18T03:49:04.534Z,36.45
2018-03-18T03:51:30.858Z,38.08
2018-03-18T03:53:57.212Z,33.00
2018-03-18T03:56:23.527Z,37.30
2018-03-18T03:58:49.858Z,31.62
2018-03-18T04:01:16.195Z,32.70
2018-03-18T04:03:42.555Z,31.73
2018-03-18T04:06:09.674Z,38.97
2018-03-18T04:08:35.982Z,34.45
2018-03-18T04:11:02.324Z,32.67
2018-03-18T04:13:28.674Z,33.92
2018-03-18T04:15:54.990Z,34.55
2018-03-18T04:18:21.388Z,33.47
2018-03-18T04:20:47.714Z,37.03
2018-03-18T04:23:14.081Z,34.35
2018-03-18T04:25:40.443Z,36.25
2018-03-18T04:28:06.752Z,36.05
2018-03-18T04:30:33.074Z,35.03
2018-03-18T04:32:59.406Z,39.97
2018-03-18T04:35:25.734Z,37.40
2018-03-18T04:37:52.058Z,36.92
2018-03-18T04:40:18.354Z,37.75
2018-03-18T04:42:44.673Z,34.90
2018-03-18T04:45:11.774Z,38.20
2018-03-18T04:47:38.094Z,38.22
2018-03-18T04:50:04.455Z,36.65
2018-03-18T04:52:30.758Z,40.28
2018-03-18T04:54:57.086Z,37.42
2018-03-18T04:57:24.441Z,33.53
2018-03-18T04:59:50.747Z,42.67
2018-03-18T05:02:17.067Z,35.60
2018-03-18T05:04:44.111Z,36.97
2018-03-18T05:07:12.155Z,38.88
2018-03-18T05:09:38.464Z,34.17
2018-03-18T05:12:04.787Z,33.50
2018-03-18T05:14:31.110Z,38.72
2018-03-18T05:16:57.430Z,34.30
2018-03-18T05:19:23.760Z,39.00
2018-03-18T05:21:50.087Z,41.13
2018-03-18T05:24:16.443Z,37.15
2018-03-18T05:26:42.762Z,37.05
2018-03-18T05:29:09.096Z,35.53
2018-03-18T05:31:35.487Z,38.70
2018-03-18T05:34:02.601Z,40.05
2018-03-18T05:36:28.958Z,40.90
2018-03-18T05:38:56.104Z,38.65
2018-03-18T05:41:23.430Z,36.10
2018-03-18T05:43:49.754Z,41.65
2018-03-18T05:46:17.085Z,38.22
2018-03-18T05:48:44.440Z,35.13
2018-03-18T05:51:10.745Z,35.03
2018-03-18T05:53:38.882Z,33.88
2018-03-18T05:56:05.276Z,35.83
2018-03-18T05:58:32.311Z,36.45
2018-03-18T06:00:58.650Z,31.65
2018-03-18T06:03:24.976Z,31.08
2018-03-18T06:05:51.412Z,38.75
2018-03-18T06:08:18.849Z,39.08
2018-03-18T06:10:45.396Z,29.17
2018-03-18T06:13:11.737Z,32.00
2018-03-18T06:15:38.172Z,36.85
2018-03-18T06:18:04.491Z,34.17
2018-03-18T06:20:30.854Z,37.22
2018-03-18T06:22:57.222Z,29.73
2018-03-18T06:25:23.554Z,32.40
2018-03-18T06:27:49.973Z,33.08
2018-03-18T06:30:16.322Z,35.55
2018-03-18T06:32:42.755Z,32.35
2018-03-18T06:35:09.140Z,38.63
2018-03-18T06:37:35.521Z,34.10
2018-03-18T06:40:02.786Z,32.70
2018-03-18T06:42:29.879Z,26.55
2018-03-18T06:44:56.216Z,30.67
2018-03-18T06:47:22.807Z,30.27
2018-03-18T06:49:49.480Z,25.75
2018-03-18T06:52:17.259Z,32.00
2018-03-18T06:54:44.456Z,33.55
2018-03-18T06:57:10.757Z,31.15
2018-03-18T06:59:37.096Z,34.47
2018-03-18T07:02:04.499Z,30.52
2018-03-18T07:04:32.527Z,33.45
2018-03-18T07:06:58.908Z,31.02
2018-03-18T07:09:25.268Z,32.78
2018-03-18T07:11:52.492Z,33.33
2018-03-18T07:14:19.602Z,30.02
2018-03-18T07:16:45.911Z,33.95
2018-03-18T07:19:12.238Z,29.83
2018-03-18T07:21:38.574Z,29.12
2018-03-18T07:24:04.914Z,34.67
2018-03-18T07:26:31.222Z,47.55
2018-03-18T07:28:57.957Z,37.45
2018-03-18T07:31:25.264Z,36.63
2018-03-18T07:33:51.586Z,33.22
2018-03-18T07:36:17.951Z,36.20
2018-03-18T07:38:45.031Z,32.47
2018-03-18T07:41:11.407Z,29.95
2018-03-18T07:43:38.486Z,32.95
2018-03-18T07:46:05.804Z,26.85
2018-03-18T07:48:32.126Z,33.78
2018-03-18T07:50:58.459Z,30.83
2018-03-18T07:53:24.767Z,46.92
2018-03-18T07:55:51.070Z,30.00
2018-03-18T07:58:17.407Z,33.00
2018-03-18T08:00:43.778Z,26.75
2018-03-18T08:03:10.074Z,25.98
2018-03-18T08:05:37.411Z,24.30
2018-03-18T08:08:03.790Z,28.05
2018-03-18T08:10:30.127Z,28.92
2018-03-18T08:12:56.448Z,28.12
2018-03-18T08:15:22.777Z,23.77
2018-03-18T08:17:49.107Z,29.48
2018-03-18T08:20:15.924Z,22.67
2018-03-18T08:22:42.239Z,33.90
2018-03-18T08:25:08.554Z,25.05
2018-03-18T08:27:35.651Z,22.77
2018-03-18T08:30:02.006Z,27.70
2018-03-18T08:32:28.315Z,26.73
2018-03-18T08:34:54.870Z,27.05
2018-03-18T08:37:21.185Z,28.02
2018-03-18T08:39:47.523Z,26.77
2018-03-18T08:42:26.154Z,27.87
2018-03-18T08:44:52.467Z,28.70
2018-03-18T08:47:18.782Z,24.87
2018-03-18T08:49:45.093Z,26.17
2018-03-18T08:52:12.135Z,26.33
2018-03-18T08:54:38.491Z,26.77
2018-03-18T08:57:04.809Z,28.83
2018-03-18T08:59:31.167Z,31.30
2018-03-18T09:01:57.484Z,23.02
2018-03-18T09:04:23.882Z,38.38
2018-03-18T09:06:50.947Z,35.60
2018-03-18T09:09:17.282Z,26.15
2018-03-18T09:11:43.583Z,41.03
2018-03-18T09:14:10.666Z,43.80
2018-03-18T09:16:37.020Z,36.70
2018-03-18T09:19:03.334Z,25.90
2018-03-18T09:21:29.699Z,22.10
2018-03-18T09:23:56.032Z,25.45
2018-03-18T09:26:22.368Z,22.73
2018-03-18T09:28:48.690Z,26.17
2018-03-18T09:31:15.012Z,25.20
2018-03-18T09:33:41.342Z,27.98
2018-03-18T09:36:08.703Z,21.35
2018-03-18T09:38:35.163Z,25.17
2018-03-18T09:41:01.494Z,22.15
2018-03-18T09:43:28.543Z,25.30
2018-03-18T09:45:54.878Z,23.17
2018-03-18T09:48:21.224Z,24.12
2018-03-18T09:50:49.539Z,26.45
2018-03-18T09:53:15.879Z,25.27
2018-03-18T09:55:43.440Z,21.23
2018-03-18T09:58:09.763Z,25.60
2018-03-18T10:00:37.119Z,25.05
2018-03-18T10:03:03.430Z,26.12
2018-03-18T10:05:29.752Z,47.65
2018-03-18T10:07:56.079Z,22.45
2018-03-18T10:10:23.127Z,22.30
2018-03-18T10:12:50.201Z,28.08
2018-03-18T10:15:16.539Z,45.55
2018-03-18T10:17:42.870Z,35.10
2018-03-18T10:20:09.189Z,24.55
2018-03-18T10:22:36.524Z,24.80
2018-03-18T10:25:03.610Z,26.62
2018-03-18T10:27:29.919Z,26.12
2018-03-18T10:29:56.235Z,24.70
2018-03-18T10:32:22.556Z,22.20
2018-03-18T10:34:49.675Z,22.27
2018-03-18T10:37:15.997Z,23.10
2018-03-18T10:39:42.348Z,27.00
2018-03-18T10:42:08.667Z,40.53
2018-03-18T10:44:34.989Z,37.47
2018-03-18T10:47:01.289Z,43.25
2018-03-18T10:49:27.610Z,31.35
2018-03-18T10:51:53.978Z,50.80
2018-03-18T10:54:20.282Z,44.25
2018-03-18T10:56:47.255Z,27.87
2018-03-18T10:59:14.624Z,63.25
2018-03-18T11:01:48.549Z,32.10
2018-03-18T11:04:16.563Z,35.85
2018-03-18T11:06:42.946Z,27.67
2018-03-18T11:09:09.262Z,25.30
2018-03-18T11:11:37.092Z,26.85
2018-03-18T11:14:03.467Z,19.42
2018-03-18T11:16:29.786Z,22.02
2018-03-18T11:18:56.110Z,29.00
2018-03-18T11:21:22.470Z,31.00
2018-03-18T11:23:49.935Z,22.73
2018-03-18T11:26:17.042Z,22.23
2018-03-18T11:28:43.359Z,23.20
2018-03-18T11:31:09.670Z,25.00
2018-03-18T11:33:36.015Z,29.58
2018-03-18T11:36:02.355Z,19.52
2018-03-18T11:38:28.738Z,24.25
2018-03-18T11:40:55.790Z,20.70
2018-03-18T11:43:22.846Z,23.60
2018-03-18T11:45:50.924Z,27.90
2018-03-18T11:48:17.244Z,23.12
2018-03-18T11:50:45.971Z,24.87
2018-03-18T11:53:12.301Z,20.23
2018-03-18T11:55:38.611Z,23.23
2018-03-18T11:58:04.947Z,22.70
2018-03-18T12:00:31.262Z,22.30
2018-03-18T12:02:57.566Z,23.35
2018-03-18T12:05:23.940Z,20.50
2018-03-18T12:07:50.256Z,24.98
2018-03-18T12:10:16.565Z,22.23
2018-03-18T12:12:43.614Z,20.60
2018-03-18T12:15:11.167Z,23.30
2018-03-18T12:17:38.227Z,24.17
2018-03-18T12:20:05.332Z,23.80
2018-03-18T12:22:31.676Z,24.85
2018-03-18T12:24:57.986Z,21.45
2018-03-18T12:27:24.295Z,23.08
2018-03-18T12:29:51.890Z,22.92
2018-03-18T12:32:18.252Z,23.67
2018-03-18T12:34:45.446Z,24.70
2018-03-18T12:37:11.759Z,23.85
2018-03-18T12:39:50.287Z,25.12
2018-03-18T12:42:29.012Z,21.87
2018-03-18T12:44:55.318Z,22.37
2018-03-18T12:47:21.645Z,21.83
2018-03-18T12:49:48.723Z,27.73
2018-03-18T12:52:15.035Z,22.37
2018-03-18T12:54:41.402Z,20.92
2018-03-18T12:57:07.731Z,24.30
2018-03-18T12:59:34.049Z,20.73
2018-03-18T13:02:00.383Z,23.05
2018-03-18T13:04:26.716Z,22.65
2018-03-18T13:06:53.114Z,21.50
2018-03-18T13:09:19.423Z,25.95
2018-03-18T13:11:47.474Z,23.90
2018-03-18T13:14:15.275Z,30.77
2018-03-18T13:16:42.351Z,23.08
2018-03-18T13:19:08.697Z,21.00
2018-03-18T13:21:35.991Z,23.10
2018-03-18T13:24:03.799Z,21.87
2018-03-18T13:26:30.106Z,26.40
2018-03-18T13:28:56.422Z,27.75
2018-03-18T13:31:23.475Z,21.08
2018-03-18T13:33:50.538Z,23.65
2018-03-18T13:36:16.855Z,18.10
2018-03-18T13:38:43.918Z,23.52
2018-03-18T13:41:10.286Z,21.30
2018-03-18T13:43:36.721Z,21.15
2018-03-18T13:46:03.056Z,24.05
2018-03-18T13:48:29.390Z,21.50
2018-03-18T13:50:55.715Z,28.15
2018-03-18T13:53:22.775Z,21.45
2018-03-18T13:55:49.153Z,22.85
2018-03-18T13:58:16.525Z,28.42
2018-03-18T14:00:42.853Z,27.98
2018-03-18T14:03:09.178Z,25.10
2018-03-18T14:05:35.515Z,24.23
2018-03-18T14:08:01.876Z,26.58
2018-03-18T14:10:28.186Z,29.92
2018-03-18T14:12:55.528Z,24.80
2018-03-18T14:15:21.839Z,25.42
2018-03-18T14:17:48.927Z,29.67
2018-03-18T14:20:15.266Z,26.77
2018-03-18T14:22:41.615Z,23.02
2018-03-18T14:25:07.942Z,22.17
2018-03-18T14:27:34.271Z,26.73
2018-03-18T14:30:01.693Z,26.25
2018-03-18T14:32:29.026Z,23.00
2018-03-18T14:34:56.328Z,26.20
2018-03-18T14:37:22.667Z,23.70
2018-03-18T14:39:48.997Z,31.95
2018-03-18T14:42:15.319Z,25.50
2018-03-18T14:44:41.630Z,23.98
2018-03-18T14:47:07.966Z,24.83
2018-03-18T14:49:34.285Z,23.87
2018-03-18T14:52:00.599Z,27.62
2018-03-18T14:54:28.648Z,26.42
2018-03-18T14:56:56.042Z,29.80
2018-03-18T14:59:23.098Z,24.67
2018-03-18T15:01:50.176Z,27.92
2018-03-18T15:04:17.502Z,26.83
2018-03-18T15:06:44.570Z,31.55
2018-03-18T15:09:10.899Z,47.08
2018-03-18T15:11:37.211Z,30.45
2018-03-18T15:14:04.943Z,32.78
2018-03-18T15:16:31.269Z,24.95
2018-03-18T15:18:57.602Z,28.67
2018-03-18T15:21:23.939Z,26.30
2018-03-18T15:23:50.244Z,28.95
2018-03-18T15:26:16.566Z,26.83
2018-03-18T15:28:43.923Z,23.08
2018-03-18T15:31:11.283Z,26.98
2018-03-18T15:33:37.603Z,30.05
2018-03-18T15:36:03.934Z,31.92
2018-03-18T15:38:30.292Z,25.73
2018-03-18T15:40:58.106Z,24.37
2018-03-18T15:43:24.470Z,30.58
2018-03-18T15:45:50.768Z,27.65
2018-03-18T15:48:17.084Z,30.17
2018-03-18T15:50:44.141Z,26.75
2018-03-18T15:53:10.476Z,30.88
2018-03-18T15:55:36.834Z,30.67
2018-03-18T15:58:03.174Z,25.45
2018-03-18T16:00:29.596Z,26.15
2018-03-18T16:02:55.855Z,24.15
2018-03-18T16:05:22.195Z,27.67
2018-03-18T16:07:48.527Z,24.80
2018-03-18T16:10:14.879Z,27.62
2018-03-18T16:12:41.194Z,27.35
2018-03-18T16:15:08.263Z,29.17
2018-03-18T16:17:35.326Z,28.27
2018-03-18T16:20:02.851Z,25.12
2018-03-18T16:22:33.560Z,36.47
2018-03-18T16:25:00.651Z,38.92
2018-03-18T16:27:26.975Z,29.10
2018-03-18T16:30:06.571Z,29.23
2018-03-18T16:32:33.030Z,27.55
2018-03-18T16:35:00.084Z,26.35
2018-03-18T16:37:28.173Z,26.70
2018-03-18T16:39:54.518Z,30.20
2018-03-18T16:42:20.842Z,24.75
2018-03-18T16:44:47.188Z,29.87
2018-03-18T16:47:13.498Z,31.35
